Time;durP1;ratioP1;P1;durP2;ratioP2;P2;SDS_P1;SDS_P2;PMS_P1;PMS_P2;Temp;Humidity;BMP_temperature;BMP_pressure;BME280_temperature;BME280_humidity;BME280_pressure;Samples;Min_cycle;Max_cycle;Signal;HPM_P1;HPM_P2
2022/05/01 00:01:42;;;;;;;0.10;0.10;;;;;;;9.67;59.77;102667.81;5001833;28;20101;-80
2022/05/01 00:04:09;;;;;;;0.10;0.10;;;;;;;9.64;60.16;102666.88;5006590;28;20040;-79
2022/05/01 00:06:35;;;;;;;1.10;1.10;;;;;;;9.60;59.65;102667.72;5005320;28;20047;-78
2022/05/01 00:09:03;;;;;;;0.10;0.10;;;;;;;9.54;59.73;102665.88;5000522;28;20407;-80
2022/05/01 00:11:30;;;;;;;0.10;0.10;;;;;;;9.49;59.70;102655.22;4999039;28;20022;-79
2022/05/01 00:13:57;;;;;;;0.10;0.10;;;;;;;9.45;60.24;102657.81;5002293;28;20034;-80
2022/05/01 00:16:24;;;;;;;0.63;0.63;;;;;;;9.40;60.15;102660.41;5004910;28;20091;-79
2022/05/01 00:18:51;;;;;;;0.03;0.03;;;;;;;9.36;59.40;102662.09;5000253;28;20050;-79
2022/05/01 00:21:39;;;;;;;0.85;0.35;;;;;;;9.41;60.35;102662.19;5000820;28;20435;-79
2022/05/01 00:24:07;;;;;;;0.10;0.10;;;;;;;9.29;60.03;102651.41;5005209;28;20507;-79
2022/05/01 00:26:33;;;;;;;0.40;0.40;;;;;;;9.25;60.36;102658.41;5002112;28;20069;-79
2022/05/01 00:29:03;;;;;;;0.32;0.32;;;;;;;9.26;60.62;102651.38;5003350;28;20459;-79
2022/05/01 00:31:30;;;;;;;0.93;0.77;;;;;;;9.22;60.22;102653.97;5004288;28;20057;-78
2022/05/01 00:36:42;;;;;;;0.10;0.10;;;;;;;9.17;59.94;102653.03;5000930;28;20484;-79
2022/05/01 00:39:08;;;;;;;0.10;0.10;;;;;;;9.16;60.47;102655.63;5006042;28;20547;-80
2022/05/01 00:41:37;;;;;;;0.00;0.00;;;;;;;9.15;61.22;102648.59;5002863;28;20033;-81
2022/05/01 00:44:08;;;;;;;0.10;0.10;;;;;;;9.14;61.26;102652.97;5003432;28;20034;-80
2022/05/01 00:46:36;;;;;;;0.08;0.08;;;;;;;9.14;60.52;102657.38;5007088;28;20952;-80
2022/05/01 00:49:07;;;;;;;0.10;0.10;;;;;;;9.13;60.84;102648.53;5004256;28;20072;-83
2022/05/01 00:51:41;;;;;;;0.10;0.10;;;;;;;9.13;60.67;102647.66;5003338;28;20405;-80
2022/05/01 00:54:07;;;;;;;0.00;0.00;;;;;;;9.11;61.16;102649.38;5003239;28;20069;-81
2022/05/01 00:56:39;;;;;;;0.10;0.10;;;;;;;9.11;60.84;102649.38;5004802;28;20480;-80
2022/05/01 00:59:06;;;;;;;0.10;0.10;;;;;;;9.09;60.52;102638.78;5000872;28;20034;-80
2022/05/01 01:01:33;;;;;;;1.08;0.40;;;;;;;9.06;60.44;102639.63;5003056;28;20033;-80
2022/05/01 01:03:59;;;;;;;0.32;0.32;;;;;;;9.04;61.19;102638.72;5007367;28;20022;-80
2022/05/01 01:06:25;;;;;;;0.10;0.10;;;;;;;9.04;61.40;102636.06;5003313;28;20121;-79
2022/05/01 01:08:52;;;;;;;0.10;0.10;;;;;;;9.04;60.88;102640.47;5006172;28;20097;-79
2022/05/01 01:11:19;;;;;;;0.10;0.10;;;;;;;9.03;61.28;102634.31;5002832;28;20045;-80
2022/05/01 01:13:48;;;;;;;0.10;0.10;;;;;;;9.03;61.15;102634.31;5002635;28;20069;-80
2022/05/01 01:16:14;;;;;;;0.55;0.55;;;;;;;9.00;60.36;102634.25;5003317;28;20026;-80
2022/05/01 01:18:40;;;;;;;0.20;0.20;;;;;;;8.99;61.02;102631.59;5000337;28;20510;-80
2022/05/01 01:21:09;;;;;;;0.10;0.10;;;;;;;8.96;60.64;102629.78;5004002;28;20030;-80
2022/05/01 01:23:36;;;;;;;0.17;0.17;;;;;;;8.93;61.23;102627.09;5000664;28;20082;-81
2022/05/01 01:26:04;;;;;;;0.10;0.10;;;;;;;8.93;61.19;102631.50;5006616;28;20105;-79
2022/05/01 01:28:33;;;;;;;0.10;0.10;;;;;;;8.90;60.91;102625.28;5004087;28;20054;-79
2022/05/01 01:33:51;;;;;;;0.10;0.10;;;;;;;8.87;61.20;102632.28;5005548;28;20033;-81
2022/05/01 01:36:20;;;;;;;0.10;0.10;;;;;;;8.85;60.01;102636.66;5008153;28;20400;-80
2022/05/01 01:38:46;;;;;;;0.25;0.25;;;;;;;8.81;61.83;102633.09;5008021;28;20030;-80
2022/05/01 01:41:15;;;;;;;0.10;0.10;;;;;;;8.78;61.03;102633.00;5003971;28;20488;-80
2022/05/01 01:43:44;;;;;;;0.10;0.10;;;;;;;8.76;60.60;102628.56;5005267;28;20557;-80
2022/05/01 01:46:10;;;;;;;0.00;0.00;;;;;;;8.73;61.21;102632.97;5004712;28;20033;-82
2022/05/01 01:48:36;;;;;;;13.73;0.75;;;;;;;8.72;62.01;102628.53;5008329;28;20028;-82
2022/05/01 01:51:04;;;;;;;0.10;0.10;;;;;;;8.71;61.19;102621.47;5007235;28;20030;-81
2022/05/01 01:53:33;;;;;;;0.00;0.00;;;;;;;8.70;60.70;102630.25;5004836;28;20396;-80
2022/05/01 01:55:59;;;;;;;0.10;0.10;;;;;;;8.66;61.88;102623.16;5003916;28;20081;-80
2022/05/01 01:58:27;;;;;;;0.10;0.10;;;;;;;8.63;61.46;102625.72;5008225;28;20125;-80
2022/05/01 02:00:55;;;;;;;0.10;0.10;;;;;;;8.61;62.29;102627.47;5004068;28;20030;-80
2022/05/01 02:03:22;;;;;;;0.30;0.30;;;;;;;8.58;61.26;102622.13;5008716;28;20120;-79
2022/05/01 02:05:49;;;;;;;0.00;0.00;;;;;;;8.54;62.41;102617.66;5005861;28;20023;-84
2022/05/01 02:08:16;;;;;;;0.20;0.20;;;;;;;8.53;62.07;102622.03;5007888;28;20034;-79
2022/05/01 02:10:44;;;;;;;0.20;0.20;;;;;;;8.53;61.90;102631.72;5009970;28;20030;-82
2022/05/01 02:13:10;;;;;;;1.17;1.17;;;;;;;8.52;61.54;102622.91;5008862;28;20515;-80
2022/05/01 02:15:37;;;;;;;0.10;0.10;;;;;;;8.49;61.86;102627.25;5011875;28;20547;-82
2022/05/01 02:18:04;;;;;;;0.77;0.77;;;;;;;8.46;61.60;102621.88;5014729;28;20036;-81
2022/05/01 02:21:34;;;;;;;0.98;0.75;;;;;;;8.42;61.00;102619.19;5012981;28;20034;-82
2022/05/01 02:23:20;;;;;;;0.10;0.10;;;;;;;8.38;61.12;102619.97;5014011;28;20064;-80
2022/05/01 02:25:47;;;;;;;0.03;0.03;;;;;;;8.35;61.70;102621.66;5017579;28;20030;-79
2022/05/01 02:28:14;;;;;;;2.38;1.75;;;;;;;8.33;62.22;102615.50;5015277;28;20439;-81
2022/05/01 02:30:40;;;;;;;0.40;0.40;;;;;;;8.32;62.73;102613.72;5008689;28;20035;-78
2022/05/01 02:33:07;;;;;;;0.10;0.10;;;;;;;8.31;62.38;102610.19;5014667;28;20026;-78
2022/05/01 02:35:35;;;;;;;0.10;0.10;;;;;;;8.30;62.36;102618.97;5014611;28;20072;-78
2022/05/01 02:38:02;;;;;;;0.10;0.10;;;;;;;8.28;63.01;102612.75;5009491;28;20043;-76
2022/05/01 02:40:29;;;;;;;0.10;0.10;;;;;;;8.28;62.36;102615.41;5010990;28;20088;-79
2022/05/01 02:42:58;;;;;;;0.03;0.03;;;;;;;8.26;62.76;102606.56;5012849;28;20507;-78
2022/05/01 02:45:24;;;;;;;0.00;0.00;;;;;;;8.26;62.21;102611.84;5013763;28;20492;-78
2022/05/01 02:47:51;;;;;;;0.10;0.10;;;;;;;8.24;61.49;102603.00;5013162;28;20067;-78
2022/05/01 02:50:17;;;;;;;0.10;0.10;;;;;;;8.23;61.42;102603.88;5012769;28;20531;-77
2022/05/01 02:52:44;;;;;;;0.10;0.10;;;;;;;8.22;62.36;102599.44;5012572;28;20944;-79
2022/05/01 02:55:10;;;;;;;0.10;0.10;;;;;;;8.22;62.14;102607.38;5009620;28;20053;-78
2022/05/01 02:57:36;;;;;;;0.80;0.57;;;;;;;8.20;61.57;102604.72;5011796;28;20101;-78
2022/05/01 03:00:05;;;;;;;0.13;0.13;;;;;;;8.18;62.55;102597.63;5013174;28;20034;-79
2022/05/01 03:02:32;;;;;;;0.20;0.20;;;;;;;8.15;62.05;102605.47;5011178;28;20064;-77
2022/05/01 03:04:59;;;;;;;0.85;0.85;;;;;;;8.16;61.42;102599.34;5011213;28;20034;-78
2022/05/01 03:07:25;;;;;;;0.10;0.10;;;;;;;8.15;62.63;102592.28;5013375;28;20061;-78
2022/05/01 03:09:52;;;;;;;0.10;0.10;;;;;;;8.14;61.81;102595.75;5013461;28;20064;-79
2022/05/01 03:12:19;;;;;;;0.10;0.10;;;;;;;8.13;61.38;102588.72;5012485;28;20030;-78
2022/05/01 03:14:46;;;;;;;0.52;0.52;;;;;;;8.11;62.90;102588.69;5013027;28;20443;-79
2022/05/01 03:17:13;;;;;;;0.10;0.10;;;;;;;8.10;61.15;102590.44;5013484;28;20049;-79
2022/05/01 03:22:25;;;;;;;0.10;0.10;;;;;;;8.04;60.99;102592.97;5011649;28;20053;-79
2022/05/01 03:24:51;;;;;;;0.20;0.20;;;;;;;7.99;61.90;102597.28;5010469;28;20067;-78
2022/05/01 03:27:17;;;;;;;1.17;1.15;;;;;;;7.97;61.12;102588.44;5008122;28;20100;-79
2022/05/01 03:30:15;;;;;;;0.17;0.17;;;;;;;7.96;61.93;102586.66;5005702;28;20053;-79
2022/05/01 03:32:30;;;;;;;0.10;0.10;;;;;;;7.95;62.65;102584.88;5012525;28;20033;-79
2022/05/01 03:34:56;;;;;;;0.40;0.40;;;;;;;7.94;62.12;102588.38;5012024;28;20550;-78
2022/05/01 03:37:23;;;;;;;0.08;0.08;;;;;;;7.95;61.89;102590.16;5012561;28;20030;-78
2022/05/01 03:39:49;;;;;;;0.00;0.00;;;;;;;7.94;62.28;102588.38;5013251;28;20549;-78
2022/05/01 03:42:15;;;;;;;0.10;0.10;;;;;;;7.92;62.30;102584.81;5011984;28;20032;-78
2022/05/01 03:44:41;;;;;;;0.20;0.20;;;;;;;7.88;62.66;102588.28;5011927;28;20029;-78
2022/05/01 03:47:07;;;;;;;0.52;0.52;;;;;;;7.85;62.79;102578.53;5012853;28;20158;-78
2022/05/01 03:49:33;;;;;;;0.08;0.08;;;;;;;7.84;61.88;102581.13;5012925;28;20073;-78
2022/05/01 03:51:59;;;;;;;0.10;0.10;;;;;;;7.83;62.23;102580.25;5009371;28;20113;-78
2022/05/01 03:54:26;;;;;;;0.00;0.00;;;;;;;7.84;61.63;102586.41;5012847;28;20041;-78
2022/05/01 03:56:53;;;;;;;0.10;0.10;;;;;;;7.84;61.39;102581.13;5013250;28;20040;-78
2022/05/01 03:59:19;;;;;;;0.10;0.10;;;;;;;7.83;62.37;102582.00;5013157;28;20092;-78
2022/05/01 04:01:45;;;;;;;0.10;0.10;;;;;;;7.83;62.64;102580.25;5004969;28;20515;-78
2022/05/01 04:04:11;;;;;;;0.25;0.25;;;;;;;7.83;61.33;102579.38;5011689;28;20037;-78
2022/05/01 04:06:37;;;;;;;0.73;0.73;;;;;;;7.83;62.41;102584.66;5011462;28;20029;-79
2022/05/01 04:09:04;;;;;;;0.00;0.00;;;;;;;7.83;61.60;102588.16;5012990;28;20499;-79
2022/05/01 04:11:30;;;;;;;0.68;0.68;;;;;;;7.82;62.11;102577.59;5011976;28;20412;-78
2022/05/01 04:13:56;;;;;;;0.10;0.10;;;;;;;7.82;61.19;102582.88;5012871;28;20041;-78
2022/05/01 04:16:22;;;;;;;0.90;0.90;;;;;;;7.81;61.81;102586.38;5013596;28;20123;-78
2022/05/01 04:18:48;;;;;;;0.10;0.10;;;;;;;7.81;62.37;102578.44;5010178;28;20066;-78
2022/05/01 04:21:14;;;;;;;0.10;0.10;;;;;;;7.82;63.19;102578.47;5007240;28;20033;-78
2022/05/01 04:23:40;;;;;;;0.08;0.08;;;;;;;7.83;62.92;102577.63;5007355;28;20518;-79
2022/05/01 04:26:07;;;;;;;0.00;0.00;;;;;;;7.85;61.91;102588.19;5011257;28;20022;-79
2022/05/01 04:28:34;;;;;;;0.00;0.00;;;;;;;7.88;63.01;102583.00;5012797;28;20026;-78
2022/05/01 04:31:00;;;;;;;0.10;0.10;;;;;;;7.90;63.25;102586.53;5011977;28;20034;-78
2022/05/01 04:33:26;;;;;;;0.00;0.00;;;;;;;7.91;62.12;102589.22;5004364;28;20052;-78
2022/05/01 04:35:52;;;;;;;0.10;0.10;;;;;;;7.92;62.62;102587.47;5012231;28;20033;-78
2022/05/01 04:38:26;;;;;;;0.10;0.10;;;;;;;8.00;62.68;102592.88;5013935;28;20109;-79
2022/05/01 04:40:54;;;;;;;0.10;0.10;;;;;;;7.98;62.62;102587.56;5012654;28;20099;-79
2022/05/01 04:43:22;;;;;;;0.10;0.10;;;;;;;8.02;63.16;102594.69;5010103;28;20500;-80
2022/05/01 04:45:50;;;;;;;0.55;0.43;;;;;;;8.09;62.72;102588.66;5006998;28;20030;-80
2022/05/01 04:48:18;;;;;;;2.72;0.93;;;;;;;8.15;62.64;102587.00;5013547;28;20038;-79
2022/05/01 04:50:45;;;;;;;1.75;1.23;;;;;;;8.22;62.95;102583.59;5010994;28;20094;-77
2022/05/01 04:53:12;;;;;;;0.10;0.10;;;;;;;8.30;63.49;102591.66;5012312;28;20144;-79
2022/05/01 04:55:41;;;;;;;0.10;0.10;;;;;;;8.36;62.89;102592.66;5013690;28;20044;-80
2022/05/01 04:58:08;;;;;;;13.45;1.33;;;;;;;8.43;63.00;102588.38;5013386;28;20138;-79
2022/05/01 05:00:35;;;;;;;0.10;0.10;;;;;;;8.50;63.68;102590.28;5012537;28;20030;-80
2022/05/01 05:03:02;;;;;;;0.28;0.28;;;;;;;8.59;63.14;102594.84;5007198;28;20034;-80
2022/05/01 05:05:31;;;;;;;0.10;0.10;;;;;;;8.66;62.95;102591.44;5009595;28;20038;-79
2022/05/01 05:10:46;;;;;;;0.00;0.00;;;;;;;8.82;63.83;102599.59;5016310;28;20096;-78
2022/05/01 05:13:15;;;;;;;0.30;0.30;;;;;;;8.90;63.67;102597.97;5017317;28;20033;-80
2022/05/01 05:15:41;;;;;;;0.10;0.10;;;;;;;8.96;63.54;102600.72;5018442;28;20415;-80
2022/05/01 05:18:08;;;;;;;0.00;0.00;;;;;;;9.05;63.69;102606.13;5019784;28;20107;-80
2022/05/01 05:20:34;;;;;;;0.10;0.10;;;;;;;9.14;63.74;102600.06;5017458;28;20026;-80
2022/05/01 05:23:00;;;;;;;0.10;0.10;;;;;;;9.22;63.47;102602.81;5016237;28;20037;-79
2022/05/01 05:25:27;;;;;;;0.10;0.10;;;;;;;9.31;63.55;102608.25;5016372;28;20021;-80
2022/05/01 05:27:53;;;;;;;0.10;0.10;;;;;;;9.39;63.35;102605.69;5014667;28;20056;-80
2022/05/01 05:30:19;;;;;;;0.10;0.10;;;;;;;9.48;63.82;102611.13;5014941;28;20079;-79
2022/05/01 05:32:45;;;;;;;0.10;0.10;;;;;;;9.56;63.64;102613.88;5016187;28;20046;-80
2022/05/01 05:35:11;;;;;;;0.10;0.10;;;;;;;9.63;63.86;102618.38;5011305;28;20121;-80
2022/05/01 05:37:37;;;;;;;0.13;0.13;;;;;;;9.71;63.46;102619.34;5008477;28;20411;-79
2022/05/01 05:40:04;;;;;;;0.10;0.10;;;;;;;9.81;63.78;102617.69;5016667;28;20056;-80
2022/05/01 05:42:30;;;;;;;0.10;0.10;;;;;;;9.88;63.47;102619.56;5016389;28;20113;-80
2022/05/01 05:44:56;;;;;;;0.00;0.00;;;;;;;9.98;63.21;102622.28;5016196;28;20053;-80
2022/05/01 05:47:23;;;;;;;0.10;0.10;;;;;;;10.07;63.12;102627.69;5015722;28;20029;-80
2022/05/01 05:49:49;;;;;;;0.10;0.10;;;;;;;10.17;63.36;102629.56;5017633;28;20034;-79
2022/05/01 05:52:15;;;;;;;0.10;0.10;;;;;;;10.27;62.76;102629.66;5009687;28;20447;-80
2022/05/01 05:54:41;;;;;;;0.10;0.10;;;;;;;10.36;62.88;102635.97;5016813;28;20101;-80
2022/05/01 05:57:07;;;;;;;0.10;0.10;;;;;;;10.48;62.80;102635.19;5015335;28;20041;-80
2022/05/01 05:59:34;;;;;;;0.10;0.10;;;;;;;10.59;62.70;102637.97;5015439;28;20034;-78
2022/05/01 06:02:00;;;;;;;0.00;0.00;;;;;;;10.66;62.95;102634.47;5015447;28;20040;-80
2022/05/01 06:04:27;;;;;;;0.00;0.00;;;;;;;10.77;62.75;102633.69;5015833;28;20112;-80
2022/05/01 06:06:53;;;;;;;0.10;0.10;;;;;;;10.87;62.85;102632.00;5016825;28;20041;-80
2022/05/01 06:09:19;;;;;;;0.10;0.10;;;;;;;10.95;62.46;102639.13;5016457;28;20030;-80
2022/05/01 06:11:45;;;;;;;0.40;0.40;;;;;;;11.05;62.63;102642.72;5013480;28;20607;-81
2022/05/01 06:14:11;;;;;;;0.00;0.00;;;;;;;11.15;62.31;102638.34;5014565;28;20037;-80
2022/05/01 06:16:38;;;;;;;0.10;0.10;;;;;;;11.24;62.24;102638.44;5016722;28;20113;-80
2022/05/01 06:19:07;;;;;;;3.05;0.75;;;;;;;11.32;62.21;102634.03;5017077;28;20034;-80
2022/05/01 06:21:33;;;;;;;0.00;0.00;;;;;;;11.39;61.87;102634.97;5009592;28;20046;-79
2022/05/01 06:23:59;;;;;;;0.00;0.00;;;;;;;11.46;62.76;102638.53;5014103;28;20034;-79
2022/05/01 06:26:25;;;;;;;0.10;0.10;;;;;;;11.53;62.31;102645.66;5016733;28;20090;-79
2022/05/01 06:28:51;;;;;;;0.52;0.52;;;;;;;11.62;62.35;102643.03;5020983;28;20040;-81
2022/05/01 06:31:18;;;;;;;0.98;0.98;;;;;;;11.67;62.83;102639.53;5018246;28;20112;-83
2022/05/01 06:33:46;;;;;;;2.08;1.98;;;;;;;11.78;62.16;102641.34;5017815;28;20030;-82
2022/05/01 06:36:15;;;;;;;0.10;0.10;;;;;;;11.89;62.18;102633.41;5017849;28;20036;-82
2022/05/01 06:38:42;;;;;;;0.30;0.30;;;;;;;11.97;61.76;102626.41;5012406;28;20030;-82
2022/05/01 06:41:08;;;;;;;0.10;0.10;;;;;;;12.05;61.66;102628.16;5015516;28;20100;-82
2022/05/01 06:43:34;;;;;;;0.10;0.10;;;;;;;12.11;60.99;102631.75;5015147;28;20050;-82
2022/05/01 06:46:00;;;;;;;0.80;0.65;;;;;;;12.20;61.25;102628.22;5014053;28;20042;-81
2022/05/01 06:48:27;;;;;;;0.55;0.35;;;;;;;12.32;61.50;102631.78;5025624;28;20515;-81
2022/05/01 06:50:53;;;;;;;0.00;0.00;;;;;;;12.41;61.19;102630.03;5016391;28;20172;-81
2022/05/01 06:53:19;;;;;;;0.17;0.17;;;;;;;12.46;61.03;102630.00;5017475;28;20025;-82
2022/05/01 06:55:46;;;;;;;0.90;0.90;;;;;;;12.54;60.76;102625.59;5014747;28;20085;-82
2022/05/01 06:58:12;;;;;;;0.22;0.22;;;;;;;12.64;60.30;102626.47;5016656;28;20037;-81
2022/05/01 07:00:38;;;;;;;0.10;0.10;;;;;;;12.71;60.41;102628.25;5012685;28;20745;-81
2022/05/01 07:03:04;;;;;;;0.10;0.10;;;;;;;12.82;60.51;102632.69;5015220;28;20061;-82
2022/05/01 07:05:30;;;;;;;0.30;0.30;;;;;;;12.87;59.91;102626.47;5015259;28;20129;-82
2022/05/01 07:07:56;;;;;;;0.47;0.47;;;;;;;12.98;59.76;102620.25;5016022;28;20026;-83
2022/05/01 07:10:23;;;;;;;0.15;0.15;;;;;;;13.08;59.79;102624.66;5016444;28;20138;-82
2022/05/01 07:12:50;;;;;;;0.10;0.10;;;;;;;13.15;59.73;102625.56;5014253;28;20030;-82
2022/05/01 07:15:16;;;;;;;0.05;0.05;;;;;;;13.26;60.07;102618.41;5013318;28;20489;-82
2022/05/01 07:17:42;;;;;;;0.65;0.30;;;;;;;13.33;59.47;102621.94;5015722;28;20053;-84
2022/05/01 07:20:09;;;;;;;0.00;0.00;;;;;;;13.44;59.22;102622.81;5012916;28;20369;-83
2022/05/01 07:22:36;;;;;;;0.20;0.20;;;;;;;13.55;59.25;102622.78;5013186;28;20164;-81
2022/05/01 07:25:02;;;;;;;0.20;0.20;;;;;;;13.65;59.05;102628.97;5016547;28;20025;-82
2022/05/01 07:27:28;;;;;;;0.22;0.22;;;;;;;13.70;58.66;102624.50;5014318;28;20051;-81
2022/05/01 07:29:54;;;;;;;0.10;0.10;;;;;;;13.72;58.03;102623.59;5015073;28;20037;-81
2022/05/01 07:32:20;;;;;;;0.82;0.82;;;;;;;13.75;58.04;102617.38;5013948;28;20112;-80
2022/05/01 07:34:46;;;;;;;0.10;0.10;;;;;;;13.80;57.87;102625.34;5009752;28;20041;-79
2022/05/01 07:37:14;;;;;;;0.20;0.20;;;;;;;13.80;58.15;102625.34;5009896;28;20030;-79
2022/05/01 07:39:40;;;;;;;0.20;0.20;;;;;;;13.82;58.17;102621.78;5013024;28;20101;-78
2022/05/01 07:42:06;;;;;;;0.20;0.20;;;;;;;13.80;56.63;102622.69;5010165;28;20500;-79
2022/05/01 07:44:33;;;;;;;0.10;0.10;;;;;;;13.81;57.24;102625.34;5007829;28;20088;-78
2022/05/01 07:46:59;;;;;;;0.10;0.10;;;;;;;13.80;56.97;102626.22;5013561;28;20442;-79
2022/05/01 07:49:25;;;;;;;0.45;0.45;;;;;;;13.80;56.92;102623.56;5014242;28;20033;-79
2022/05/01 07:51:54;;;;;;;0.43;0.25;;;;;;;13.77;56.50;102625.34;5009504;28;20034;-79
2022/05/01 07:54:21;;;;;;;0.10;0.10;;;;;;;13.73;56.79;102625.38;5013664;28;20061;-79
2022/05/01 07:56:47;;;;;;;0.03;0.03;;;;;;;13.67;56.93;102621.84;5013568;28;20173;-79
2022/05/01 07:59:14;;;;;;;0.55;0.55;;;;;;;13.65;57.03;102623.63;5014388;28;20036;-78
2022/05/01 08:01:40;;;;;;;0.10;0.10;;;;;;;13.61;56.97;102624.53;5012484;28;20033;-79
2022/05/01 08:04:37;;;;;;;0.00;0.00;;;;;;;13.57;56.88;102620.97;5013582;28;20049;-81
2022/05/01 08:06:52;;;;;;;0.30;0.30;;;;;;;13.55;56.78;102628.13;5010199;28;20473;-80
2022/05/01 08:09:18;;;;;;;0.10;0.10;;;;;;;13.57;57.19;102613.91;5011345;28;20126;-80
2022/05/01 08:11:45;;;;;;;0.73;0.73;;;;;;;13.56;56.90;102621.91;5023822;28;20104;-81
2022/05/01 08:14:12;;;;;;;0.00;0.00;;;;;;;13.54;56.56;102608.56;5023940;28;20034;-80
2022/05/01 08:16:39;;;;;;;0.75;0.75;;;;;;;13.55;55.88;102612.13;4994315;28;20436;-81
2022/05/01 08:21:52;;;;;;;0.00;0.00;;;;;;;13.57;56.33;102619.22;5012231;28;20125;-80
2022/05/01 08:24:19;;;;;;;0.00;0.00;;;;;;;13.57;56.04;102613.91;5013055;28;20022;-80
2022/05/01 08:26:47;;;;;;;0.00;0.00;;;;;;;13.60;56.14;102613.00;5011141;28;20103;-81
2022/05/01 08:29:15;;;;;;;0.00;0.00;;;;;;;13.68;56.17;102611.19;5003036;28;20031;-81
2022/05/01 08:31:42;;;;;;;0.57;0.57;;;;;;;13.76;55.84;102608.50;5002537;28;20411;-82
2022/05/01 08:34:10;;;;;;;0.10;0.10;;;;;;;13.83;55.70;102607.56;5004767;28;20022;-81
2022/05/01 08:36:37;;;;;;;0.65;0.65;;;;;;;13.91;55.58;102608.41;5006204;28;20033;-80
2022/05/01 08:39:04;;;;;;;0.40;0.40;;;;;;;14.02;55.22;102604.81;4995962;28;20407;-83
2022/05/01 08:41:32;;;;;;;0.40;0.40;;;;;;;14.13;55.22;102604.72;5010595;28;20036;-81
2022/05/01 08:44:00;;;;;;;0.88;0.85;;;;;;;14.21;54.16;102603.75;5007863;28;20084;-84
2022/05/01 08:46:55;;;;;;;0.88;0.57;;;;;;;14.43;53.14;102600.97;5005983;28;20411;-82
2022/05/01 08:49:23;;;;;;;0.00;0.00;;;;;;;14.42;52.15;102591.19;5030734;28;20072;-82
2022/05/01 08:51:50;;;;;;;2.42;1.52;;;;;;;14.56;52.38;102602.59;5017431;28;20045;-82
2022/05/01 08:54:17;;;;;;;0.20;0.20;;;;;;;14.75;52.06;102590.94;5018533;28;20025;-84
2022/05/01 08:56:45;;;;;;;0.10;0.10;;;;;;;14.90;52.21;102596.09;5018260;28;20032;-82
2022/05/01 08:59:14;;;;;;;0.10;0.10;;;;;;;15.04;52.28;102595.94;5014409;28;20034;-82
2022/05/01 09:01:42;;;;;;;0.38;0.38;;;;;;;15.19;51.74;102593.13;5001897;28;20041;-82
2022/05/01 09:04:12;;;;;;;0.00;0.00;;;;;;;15.31;51.46;102594.75;5005647;28;20026;-83
2022/05/01 09:06:40;;;;;;;0.90;0.90;;;;;;;15.41;50.91;102590.19;4999574;28;20049;-80
2022/05/01 09:09:15;;;;;;;0.00;0.00;;;;;;;15.53;51.10;102598.06;5008337;28;20491;-83
2022/05/01 09:14:28;;;;;;;0.10;0.10;;;;;;;15.72;48.47;102588.94;4999488;28;20405;-81
2022/05/01 09:17:18;;;;;;;0.00;0.00;;;;;;;15.89;49.61;102604.75;5009055;28;20033;-84
2022/05/01 09:19:48;;;;;;;0.00;0.00;;;;;;;15.84;49.46;102595.00;5005747;28;20049;-82
2022/05/01 09:22:15;;;;;;;0.10;0.10;;;;;;;15.91;50.52;102595.78;5000791;28;20037;-83
2022/05/01 09:24:41;;;;;;;0.00;0.00;;;;;;;15.91;48.60;102608.28;5004006;28;20090;-82
2022/05/01 09:27:25;;;;;;;0.03;0.03;;;;;;;16.08;49.19;102602.72;5005287;28;20093;-82
2022/05/01 09:32:53;;;;;;;0.10;0.10;;;;;;;16.24;48.80;102606.03;5086588;27;1481927;-81
2022/05/01 09:40:55;;;;;;;0.10;0.10;;;;;;;16.66;44.96;102606.25;5068853;28;20376;-81
2022/05/01 09:49:01;;;;;;;0.00;0.00;;;;;;;16.90;45.17;102596.00;5111376;27;20898;-80
2022/05/01 09:51:28;;;;;;;0.52;0.25;;;;;;;16.87;43.67;102596.91;5101107;28;20028;-80
2022/05/01 09:53:55;;;;;;;0.20;0.20;;;;;;;17.04;43.74;102593.97;5097806;28;20115;-80
2022/05/01 09:56:22;;;;;;;0.03;0.03;;;;;;;17.21;43.65;102596.31;5102471;28;20036;-79
2022/05/01 09:59:03;;;;;;;0.10;0.10;;;;;;;17.44;42.43;102593.16;5103066;28;20044;-81
2022/05/01 10:01:30;;;;;;;0.20;0.20;;;;;;;17.26;39.59;102594.44;5095700;28;20024;-80
2022/05/01 10:04:00;;;;;;;0.30;0.30;;;;;;;17.52;41.19;102586.75;5100660;28;20024;-81
2022/05/01 10:06:30;;;;;;;0.17;0.17;;;;;;;17.72;43.37;102587.22;5102657;28;20028;-81
2022/05/01 10:08:56;;;;;;;0.20;0.20;;;;;;;17.91;41.00;102581.44;5099189;28;20024;-81
2022/05/01 10:11:24;;;;;;;0.10;0.10;;;;;;;18.09;42.16;102582.81;5101412;28;20044;-81
2022/05/01 10:13:51;;;;;;;0.00;0.00;;;;;;;18.14;38.69;102588.09;5100143;28;20153;-81
2022/05/01 10:16:18;;;;;;;0.10;0.10;;;;;;;18.18;39.52;102584.41;5098795;28;20016;-81
2022/05/01 10:18:45;;;;;;;0.73;0.73;;;;;;;18.18;38.37;102581.72;5103319;28;20049;-80
2022/05/01 10:21:12;;;;;;;0.43;0.43;;;;;;;18.21;38.93;102578.97;5101606;28;20439;-81
2022/05/01 10:23:40;;;;;;;0.20;0.20;;;;;;;18.24;41.12;102569.06;5102042;28;20023;-80
2022/05/01 10:37:50;;;;;;;0.20;0.20;;;;;;;18.12;39.58;102569.34;5066256;27;1867522;-79
2022/05/01 10:40:16;;;;;;;0.77;0.77;;;;;;;17.98;39.45;102561.63;5100110;28;20050;-80
2022/05/01 10:42:46;;;;;;;0.00;0.00;;;;;;;18.14;40.05;102559.44;5102475;28;20499;-80
2022/05/01 10:48:12;;;;;;;0.10;0.10;;;;;;;18.39;38.94;102554.38;5049056;27;20486;-80
2022/05/01 10:50:39;;;;;;;0.28;0.28;;;;;;;18.34;36.00;102558.94;5037206;28;20026;-81
2022/05/01 10:53:09;;;;;;;0.00;0.00;;;;;;;18.46;36.01;102549.72;5037462;27;20053;-81
2022/05/01 11:00:57;;;;;;;0.00;0.00;;;;;;;18.49;36.76;102540.69;5125154;27;20394;-79
2022/05/01 11:08:39;;;;;;;0.88;0.88;;;;;;;18.38;37.81;102528.44;5072330;28;20390;-79
2022/05/01 11:11:07;;;;;;;0.10;0.10;;;;;;;18.27;34.48;102527.84;5065087;28;20028;-78
2022/05/01 11:13:38;;;;;;;0.10;0.10;;;;;;;18.27;35.36;102519.81;5071388;28;20045;-82
2022/05/01 11:16:06;;;;;;;0.10;0.10;;;;;;;18.26;36.33;102521.59;5070907;28;20067;-80
2022/05/01 11:18:53;;;;;;;0.10;0.10;;;;;;;18.45;35.42;102513.06;5069709;28;20215;-82
2022/05/01 11:24:04;;;;;;;0.20;0.20;;;;;;;18.40;34.67;102515.84;5079394;27;2021908;-84
2022/05/01 11:26:32;;;;;;;0.30;0.30;;;;;;;18.32;35.14;102507.13;5109318;28;20070;-82
2022/05/01 11:29:14;;;;;;;0.10;0.10;;;;;;;18.55;36.39;102503.81;5111004;28;20028;-82
2022/05/01 11:31:45;;;;;;;0.20;0.20;;;;;;;18.66;36.84;102502.69;5111727;28;20470;-82
2022/05/01 11:42:36;;;;;;;0.13;0.13;;;;;;;19.08;36.21;102494.34;5091136;27;20355;-81
2022/05/01 11:45:04;;;;;;;0.15;0.15;;;;;;;18.99;34.79;102487.44;5090925;28;20503;-81
2022/05/01 11:47:32;;;;;;;0.20;0.20;;;;;;;19.14;35.54;102485.22;5090391;28;20442;-81
2022/05/01 11:49:58;;;;;;;0.32;0.22;;;;;;;19.26;36.41;102484.84;5103041;28;20036;-81
2022/05/01 11:52:24;;;;;;;0.82;0.82;;;;;;;19.34;34.50;102485.50;5107821;28;20028;-81
2022/05/01 11:54:56;;;;;;;0.10;0.10;;;;;;;19.42;36.25;102479.00;5111520;28;20055;-81
2022/05/01 12:03:01;;;;;;;0.10;0.10;;;;;;;19.74;34.43;102464.53;5093474;28;20047;-81
2022/05/01 12:05:31;;;;;;;0.20;0.20;;;;;;;19.83;34.78;102463.38;5108849;28;20032;-80
2022/05/01 12:07:59;;;;;;;0.13;0.13;;;;;;;20.03;33.98;102463.56;5110771;28;20110;-81
2022/05/01 12:10:26;;;;;;;0.10;0.10;;;;;;;20.26;33.29;102459.22;5106869;28;20101;-81
2022/05/01 12:12:53;;;;;;;0.10;0.10;;;;;;;20.39;33.17;102456.97;5097639;28;20047;-81
2022/05/01 12:15:19;;;;;;;0.10;0.10;;;;;;;20.26;32.59;102450.25;5106265;28;20072;-81
2022/05/01 12:17:45;;;;;;;0.10;0.10;;;;;;;20.06;32.11;102453.66;5110364;28;20040;-81
2022/05/01 12:20:12;;;;;;;0.10;0.10;;;;;;;19.95;33.45;102446.84;5110684;28;20103;-82
2022/05/01 12:22:39;;;;;;;0.10;0.10;;;;;;;19.84;32.55;102451.69;5110343;28;20072;-80
2022/05/01 12:27:41;;;;;;;0.10;0.10;;;;;;;19.90;33.75;102447.91;5082615;27;1864470;-79
2022/05/01 12:30:09;;;;;;;0.20;0.20;;;;;;;20.02;32.74;102442.97;5116874;28;20032;-81
2022/05/01 12:32:37;;;;;;;0.40;0.40;;;;;;;20.23;33.67;102432.41;5110904;28;20031;-81
2022/05/01 12:35:05;;;;;;;0.10;0.10;;;;;;;20.36;32.50;102431.03;5101714;28;20028;-80
2022/05/01 12:37:34;;;;;;;0.05;0.05;;;;;;;20.46;32.33;102430.69;5090786;28;20026;-81
2022/05/01 12:40:09;;;;;;;0.10;0.10;;;;;;;20.54;31.31;102428.63;5093566;28;20027;-81
2022/05/01 12:45:21;;;;;;;0.05;0.05;;;;;;;20.69;31.71;102437.94;5120177;27;20384;-81
2022/05/01 12:47:49;;;;;;;0.50;0.50;;;;;;;20.81;31.47;102426.72;5111670;28;20063;-81
2022/05/01 12:53:01;;;;;;;0.15;0.05;;;;;;;20.94;30.65;102421.75;5131543;27;20408;-81